Aeroporto :
LOGIN :

Iscrizione | Disclaimer

   EN    FR    IT 

 










Sommario :    VFR   VFR Marginale   IFR   IFR Intensivo   IFR Molto Intensivo
Visibilità : 
Base nubi : 
>= 8 km
>= 3000ft
5 / 8 km
1000 / 3000 ft
1500m / 5 km
500 / 1000 ft
800 / 1500m
200 / 500 ft
< 800m
< 200 ft
Simboli :   Temporali  Nebbia  Neve Forte  Precipitazioni Forti  Vento > 20 kt
SIGMETs :   Varie  Temporali  Ghiacco  Turbolenza  Onda orograficha  Ceneri Vulcaniche






- Altitudine del aeroporto : 1830 ft


EBLB - Butgenbach Elsenborn

ULTIMO METAR :
  • 290725Z AUTO 25010KT 1700 -SN OVC004/// M01/M01 Q1001 YLO

METARs OBSOLETI :
  • 290720Z AUTO 25010KT 2600 -SN OVC004/// M01/M01 Q1001 YLO
  • 290705Z AUTO 25010KT 1500 -SN OVC003/// M01/M01 Q1001 AMB
  • 290655Z AUTO 25010KT 1800 -SN OVC003/// M01/M01 Q1001 YLO
  • 290639Z AUTO 24012KT 1400 -SN OVC003/// M01/M01 Q1001 AMB
  • 290625Z AUTO 24011KT 2500 -SN OVC003/// M01/M01 Q1001 YLO
  • 290555Z AUTO 24009KT 4000 -SN OVC002/// M01/M01 Q1001 AMB
  • 290525Z AUTO 24009KT 3600 BR OVC002/// M02/M02 Q1001 AMB
  • 290455Z AUTO 23008KT 3200 BR OVC002/// M02/M02 Q1001 AMB
  • 290446Z AUTO 23008KT 3700 BR OVC002/// M02/M02 Q1001 AMB
  • 290425Z AUTO 23007KT 4100 BR OVC003/// M02/M02 Q1002 YLO
  • 290355Z AUTO 23007KT 4300 BR OVC003/// M02/M03 Q1002 YLO
  • 290325Z AUTO 23008KT 4000 BR OVC003/// M03/M03 Q1002 YLO
  • 290255Z AUTO 21004KT 4400 BR OVC004/// M03/M04 Q1003 YLO

Previsioni scadute.



MetMap, La meteo Aeronautica in un colpo d'occhio ! - Copyright ORBIFLY Dicembre 2007 - Disclaimer

ORBIFLY MET'MAP TEAM :

Programmazione e sviluppo : Alexandra Zaïnal
Concezione : Baudouin d'Aumeries
Supporto tecnico e logistico : Manuel Goepfert
Aiuto : Marc-Olivier Méhu
Aiuto per la traduzione : Arnaldo La Scala




FONTI E CREDITI :

   NOAA